Time;durP1;ratioP1;P1;durP2;ratioP2;P2;SDS_P1;SDS_P2;PMS_P1;PMS_P2;Temp;Humidity;BMP_temperature;BMP_pressure;BME280_temperature;BME280_humidity;BME280_pressure;Samples;Min_cycle;Max_cycle;Signal;HPM_P1;HPM_P2
2023/05/10 00:00:13;;;;;;;3.30;1.40;;;;;;;9.47;56.03;100014.80;78317;1301;3026340;-63
2023/05/10 00:02:41;;;;;;;2.70;1.30;;;;;;;9.48;56.13;100014.73;79574;1295;3012920;-64
2023/05/10 00:05:08;;;;;;;3.70;1.40;;;;;;;9.48;55.91;100011.02;79618;1298;3011745;-64
2023/05/10 00:07:35;;;;;;;2.30;1.30;;;;;;;9.43;56.55;100012.70;78310;1294;3054010;-63
2023/05/10 00:10:03;;;;;;;3.50;1.70;;;;;;;9.39;56.93;100009.36;79554;1298;3012972;-65
2023/05/10 00:12:31;;;;;;;3.50;1.60;;;;;;;9.39;57.02;100009.00;79610;1295;3011891;-63
2023/05/10 00:14:59;;;;;;;3.10;1.70;;;;;;;9.39;56.93;100007.27;78325;1298;3051374;-65
2023/05/10 00:17:26;;;;;;;2.70;1.50;;;;;;;9.34;57.39;100006.63;79513;1298;3013033;-66
2023/05/10 00:19:52;;;;;;;3.40;1.70;;;;;;;9.29;57.69;100008.61;79492;1295;3013694;-67
2023/05/10 00:23:42;;;;;;;2.60;1.50;;;;;;;9.32;57.90;100005.48;80033;1299;3013106;-67
2023/05/10 00:26:09;;;;;;;4.20;1.80;;;;;;;9.28;58.14;100006.19;79053;1304;3012854;-63
2023/05/10 00:28:37;;;;;;;7.10;2.00;;;;;;;9.28;58.04;100006.26;79212;1300;3013442;-63
2023/05/10 00:31:05;;;;;;;4.40;2.10;;;;;;;9.31;57.87;100007.13;78051;1303;3053612;-63
2023/05/10 00:33:33;;;;;;;6.00;1.80;;;;;;;9.31;58.18;100003.44;79226;1298;3013121;-65
2023/05/10 00:35:59;;;;;;;5.10;2.10;;;;;;;9.29;58.20;100002.67;77586;1301;3013125;-63
2023/05/10 00:38:27;;;;;;;3.40;2.00;;;;;;;9.29;58.24;100002.14;78317;1300;3028757;-64
2023/05/10 00:40:53;;;;;;;3.80;1.80;;;;;;;9.32;58.21;100002.20;79419;1301;3013069;-65
2023/05/10 00:43:27;;;;;;;3.50;1.90;;;;;;;9.31;58.53;100003.29;78318;1301;3055930;-65
2023/05/10 00:45:53;;;;;;;3.00;1.70;;;;;;;9.34;58.41;100002.45;79490;1300;3014543;-64
2023/05/10 00:48:20;;;;;;;4.60;1.70;;;;;;;9.35;58.37;100001.35;79404;1301;3013086;-64
2023/05/10 00:50:48;;;;;;;5.50;2.00;;;;;;;9.34;58.82;99997.73;78285;1299;3027976;-62
2023/05/10 00:53:15;;;;;;;4.50;1.60;;;;;;;9.31;58.97;99996.63;79543;1296;3012806;-66
2023/05/10 00:55:41;;;;;;;5.50;2.10;;;;;;;9.33;58.75;99998.66;79546;1296;3011705;-65
2023/05/10 00:58:09;;;;;;;2.90;1.60;;;;;;;9.34;58.64;99996.65;78171;1299;3026732;-66
2023/05/10 01:00:35;;;;;;;2.40;1.60;;;;;;;9.35;58.88;99997.67;79401;1300;3013560;-64
2023/05/10 01:03:02;;;;;;;2.60;1.60;;;;;;;9.36;58.81;100000.06;79185;1301;3013995;-62
2023/05/10 01:05:31;;;;;;;2.50;1.60;;;;;;;9.38;58.77;99997.55;79151;1296;3025824;-63
2023/05/10 01:08:02;;;;;;;2.90;1.70;;;;;;;9.44;58.42;100004.58;79334;1301;3011962;-64
2023/05/10 01:10:31;;;;;;;4.30;1.70;;;;;;;9.47;58.40;99998.14;78207;1299;3053083;-67
2023/05/10 01:12:58;;;;;;;3.00;1.30;;;;;;;9.47;58.39;100000.95;79202;1311;3012908;-64
2023/05/10 01:15:24;;;;;;;3.70;1.60;;;;;;;9.48;58.54;100000.91;79449;1301;3013430;-64
2023/05/10 01:17:52;;;;;;;3.00;1.30;;;;;;;9.48;58.43;99998.45;78002;1295;3026282;-63
2023/05/10 01:20:18;;;;;;;2.90;1.40;;;;;;;9.47;58.73;99997.29;79304;1296;3013409;-67
2023/05/10 01:23:24;;;;;;;3.50;1.60;;;;;;;9.49;58.51;99998.59;79395;1301;3011716;-64
2023/05/10 01:26:17;;;;;;;3.60;1.40;;;;;;;9.46;58.80;99997.52;78016;1301;3053903;-64
2023/05/10 01:29:17;;;;;;;2.10;1.30;;;;;;;9.47;58.77;99999.56;78275;1302;3050447;-64
2023/05/10 01:32:03;;;;;;;2.10;1.30;;;;;;;9.46;58.76;99997.52;78107;1301;3052651;-68
2023/05/10 01:34:35;;;;;;;2.90;1.30;;;;;;;9.46;58.68;99998.76;78405;1301;3053259;-66
2023/05/10 01:37:09;;;;;;;6.30;1.50;;;;;;;9.47;58.44;100002.20;79410;1296;3011518;-64
2023/05/10 01:39:43;;;;;;;1.60;1.30;;;;;;;9.42;58.53;99997.52;78194;1300;3050573;-63
2023/05/10 01:42:25;;;;;;;3.20;1.70;;;;;;;9.46;58.53;99994.02;79651;1296;3012802;-65
2023/05/10 01:44:56;;;;;;;3.70;1.70;;;;;;;9.52;58.16;99997.55;78442;1296;3049700;-63
2023/05/10 01:47:25;;;;;;;5.90;1.90;;;;;;;9.49;58.39;99988.64;79657;1298;3013089;-63
2023/05/10 01:49:54;;;;;;;3.50;2.10;;;;;;;9.48;58.39;99989.90;78295;1295;3049543;-65
2023/05/10 01:52:38;;;;;;;2.20;1.40;;;;;;;9.47;58.20;99986.10;79553;1298;3013373;-60
2023/05/10 01:55:11;;;;;;;3.20;1.60;;;;;;;9.45;58.02;99986.20;78323;1298;3068926;-63
2023/05/10 01:57:39;;;;;;;2.80;1.70;;;;;;;9.44;58.33;99985.02;79686;1295;3011814;-62
2023/05/10 02:00:08;;;;;;;3.00;1.70;;;;;;;9.41;58.44;99984.82;78177;1301;3056959;-63
2023/05/10 02:02:46;;;;;;;2.40;1.70;;;;;;;9.38;58.16;99983.70;78177;1298;3050019;-64
2023/05/10 02:05:13;;;;;;;4.20;1.80;;;;;;;9.40;58.19;99982.56;79659;1298;3013856;-63
2023/05/10 02:07:40;;;;;;;2.00;1.70;;;;;;;9.39;58.36;99985.60;79301;1296;3011492;-64
2023/05/10 02:10:09;;;;;;;4.30;1.70;;;;;;;9.39;58.03;99984.73;78188;1301;3051729;-63
2023/05/10 02:12:43;;;;;;;2.20;1.60;;;;;;;9.32;58.59;99985.94;79626;1298;3013707;-63
2023/05/10 02:15:12;;;;;;;2.80;1.90;;;;;;;9.24;58.93;99985.41;78302;1300;3056829;-62
2023/05/10 02:17:39;;;;;;;3.30;2.00;;;;;;;9.17;59.25;99984.17;79570;1296;3013262;-62
2023/05/10 02:20:07;;;;;;;4.60;1.90;;;;;;;9.13;59.50;99982.25;79247;1301;3011454;-64
2023/05/10 02:22:35;;;;;;;3.00;1.90;;;;;;;9.15;59.24;99982.17;78256;1298;3052133;-63
2023/05/10 02:25:02;;;;;;;3.50;2.10;;;;;;;9.06;59.72;99976.82;79551;1298;3013430;-60
2023/05/10 02:27:29;;;;;;;5.20;2.40;;;;;;;8.98;60.31;99978.38;79487;1296;3013469;-61
2023/05/10 02:29:56;;;;;;;6.40;4.20;;;;;;;9.02;60.10;99978.21;78350;1296;3028150;-64
2023/05/10 02:32:24;;;;;;;11.20;6.30;;;;;;;8.93;60.51;99978.61;79360;1295;3013768;-64
2023/05/10 02:34:51;;;;;;;15.90;5.80;;;;;;;8.94;60.54;99984.70;79458;1295;3011609;-62
2023/05/10 02:37:20;;;;;;;12.40;6.60;;;;;;;8.92;60.84;99982.18;78401;1298;3052673;-62
2023/05/10 02:39:50;;;;;;;11.20;5.70;;;;;;;8.92;60.80;99980.44;79527;1298;3012923;-64
2023/05/10 02:42:19;;;;;;;10.90;7.00;;;;;;;8.99;60.53;99978.73;78334;1299;3050135;-64
2023/05/10 02:44:47;;;;;;;11.90;6.30;;;;;;;9.02;60.44;99979.98;79474;1295;3013182;-65
2023/05/10 02:47:18;;;;;;;10.00;6.00;;;;;;;9.05;60.15;99984.55;78177;1298;3026951;-63
2023/05/10 02:49:44;;;;;;;9.80;5.80;;;;;;;9.05;60.27;99985.96;79481;1294;3015787;-63
2023/05/10 02:52:11;;;;;;;15.70;6.10;;;;;;;9.11;59.87;99985.86;79489;1298;3012076;-60
2023/05/10 02:54:46;;;;;;;9.90;6.20;;;;;;;9.10;60.22;99986.61;78129;1298;3052649;-61
2023/05/10 02:57:17;;;;;;;11.10;6.60;;;;;;;9.09;60.18;99986.98;78997;1298;3011449;-61
2023/05/10 02:59:45;;;;;;;12.00;6.30;;;;;;;9.10;60.43;99988.89;79348;1301;3013095;-65
2023/05/10 03:02:13;;;;;;;15.40;6.70;;;;;;;9.07;60.51;99986.89;78264;1299;3029525;-62
2023/05/10 03:04:40;;;;;;;10.70;6.30;;;;;;;9.08;60.58;99988.98;79541;1296;3013440;-63
2023/05/10 03:07:07;;;;;;;11.30;6.70;;;;;;;9.15;60.43;99988.44;79278;1301;3012606;-63
2023/05/10 03:09:35;;;;;;;12.30;6.20;;;;;;;9.16;60.35;99994.00;78235;1298;3028168;-58
2023/05/10 03:12:14;;;;;;;10.80;6.00;;;;;;;9.18;60.54;99997.23;79476;1308;3013309;-62
2023/05/10 03:14:49;;;;;;;9.20;5.50;;;;;;;9.28;59.67;99997.66;78284;1302;3069430;-65
2023/05/10 03:17:53;;;;;;;7.70;5.00;;;;;;;9.34;59.51;99994.91;79203;1295;3011500;-60
2023/05/10 03:20:25;;;;;;;9.40;5.60;;;;;;;9.38;59.53;99994.91;78377;1298;3050709;-60
2023/05/10 03:22:55;;;;;;;9.20;5.30;;;;;;;9.41;59.43;99993.00;79538;1298;3011775;-63
2023/05/10 03:25:23;;;;;;;8.40;5.30;;;;;;;9.48;59.21;99995.14;78152;1308;3049639;-60
2023/05/10 03:27:51;;;;;;;9.00;4.90;;;;;;;9.47;59.45;99994.48;79440;1296;3013058;-64
2023/05/10 03:30:18;;;;;;;7.40;4.20;;;;;;;9.56;59.19;99995.27;79454;1301;3011938;-62
2023/05/10 03:32:46;;;;;;;9.30;4.90;;;;;;;9.66;58.93;99993.75;78187;1298;3052096;-62
2023/05/10 03:35:15;;;;;;;9.20;3.70;;;;;;;9.75;58.22;99994.73;79501;1295;3013183;-65
2023/05/10 03:37:41;;;;;;;8.40;3.60;;;;;;;9.79;58.14;99996.25;79507;1299;3013694;-61
2023/05/10 03:40:09;;;;;;;5.40;3.40;;;;;;;9.82;57.97;99996.98;78361;1298;3049199;-60
2023/05/10 03:42:37;;;;;;;5.70;3.30;;;;;;;9.89;57.56;99998.40;79512;1301;3012850;-62
2023/05/10 03:45:05;;;;;;;7.60;3.80;;;;;;;9.88;57.45;100000.38;80136;1296;3013678;-61
2023/05/10 03:47:33;;;;;;;8.00;3.80;;;;;;;9.87;57.21;100000.24;78818;1298;3051734;-61
2023/05/10 03:50:00;;;;;;;5.80;3.60;;;;;;;9.93;57.03;100001.20;79569;1302;3013372;-61
2023/05/10 03:52:26;;;;;;;5.90;3.30;;;;;;;9.94;56.97;99995.71;79500;1298;3011665;-62
2023/05/10 03:54:54;;;;;;;10.00;4.40;;;;;;;10.01;56.70;99999.90;78170;1299;3026704;-60
2023/05/10 03:57:21;;;;;;;9.10;3.60;;;;;;;10.08;56.35;99995.89;79481;1298;3013671;-59
2023/05/10 03:59:47;;;;;;;6.90;4.70;;;;;;;10.08;55.56;99994.84;79379;1308;3011616;-61
2023/05/10 04:02:15;;;;;;;8.70;4.30;;;;;;;10.11;55.50;99996.10;78306;1298;3026617;-61
2023/05/10 04:04:42;;;;;;;7.90;4.00;;;;;;;10.12;55.13;99997.83;79549;1297;3013563;-63
2023/05/10 04:07:10;;;;;;;8.80;4.60;;;;;;;10.11;55.14;99996.82;79498;1297;3012913;-64
2023/05/10 04:09:38;;;;;;;7.90;5.20;;;;;;;10.14;54.56;99996.30;78399;1300;3049621;-65
2023/05/10 04:12:06;;;;;;;9.70;4.50;;;;;;;10.15;54.30;99995.02;79523;1299;3011967;-62
2023/05/10 04:14:33;;;;;;;8.20;4.30;;;;;;;10.16;53.83;99996.73;79539;1293;3011314;-63
2023/05/10 04:17:01;;;;;;;8.40;3.90;;;;;;;10.20;53.31;99997.21;78539;1299;3052315;-62
2023/05/10 04:19:30;;;;;;;4.40;2.80;;;;;;;10.30;53.22;99999.86;79245;1298;3012829;-64
2023/05/10 04:21:59;;;;;;;3.80;2.20;;;;;;;10.36;52.66;99998.19;78915;1299;3011579;-63
2023/05/10 04:24:26;;;;;;;5.50;2.40;;;;;;;10.30;52.89;99993.04;79647;1297;3012798;-61
2023/05/10 04:26:54;;;;;;;3.60;1.70;;;;;;;10.37;52.61;99995.68;79548;1293;3011526;-65
2023/05/10 04:29:22;;;;;;;2.50;1.50;;;;;;;10.48;52.79;99995.83;78437;1298;3049306;-64
2023/05/10 04:31:48;;;;;;;3.60;1.50;;;;;;;10.54;52.25;99994.98;79559;1298;3013276;-63
2023/05/10 04:34:15;;;;;;;1.20;1.10;;;;;;;10.60;51.81;99993.46;79619;1295;3011830;-66
2023/05/10 04:36:43;;;;;;;2.50;1.20;;;;;;;10.69;51.76;99994.23;78567;1298;3026533;-64
2023/05/10 04:39:09;;;;;;;4.10;1.10;;;;;;;10.71;50.85;99996.20;79784;1296;3013305;-63
2023/05/10 04:41:37;;;;;;;3.10;1.10;;;;;;;10.71;50.39;99994.98;79555;1296;3013381;-61
2023/05/10 04:44:05;;;;;;;3.00;1.40;;;;;;;10.65;50.26;99998.11;78236;1299;3051174;-64
2023/05/10 04:46:32;;;;;;;2.50;1.10;;;;;;;10.68;50.51;99994.80;79598;1297;3013005;-65
2023/05/10 04:48:59;;;;;;;2.70;1.80;;;;;;;10.74;50.44;99994.65;79764;1293;3011842;-66
2023/05/10 04:51:26;;;;;;;2.40;1.10;;;;;;;10.73;50.24;99994.67;78369;1298;3051301;-62
2023/05/10 04:53:53;;;;;;;2.00;1.40;;;;;;;10.79;50.13;99994.38;79517;1293;3018846;-65
2023/05/10 04:56:19;;;;;;;3.00;1.20;;;;;;;10.84;49.42;99992.55;79720;1292;3012859;-64
2023/05/10 04:58:47;;;;;;;3.60;1.20;;;;;;;10.86;48.88;99996.15;78290;1298;3026357;-65
2023/05/10 05:01:14;;;;;;;2.00;1.00;;;;;;;10.83;47.84;99992.05;79851;1305;3013650;-62
2023/05/10 05:03:40;;;;;;;3.00;1.30;;;;;;;10.95;47.97;99991.64;79804;1299;3011727;-65
2023/05/10 05:06:08;;;;;;;2.40;1.20;;;;;;;11.12;47.68;99990.19;78448;1293;3027070;-64
2023/05/10 05:08:35;;;;;;;2.00;1.00;;;;;;;11.19;47.24;99983.83;79505;1298;3019017;-65
2023/05/10 05:11:01;;;;;;;1.40;1.00;;;;;;;11.33;46.97;99985.15;79689;1298;3013089;-63
2023/05/10 05:13:29;;;;;;;1.50;0.90;;;;;;;11.34;46.38;99985.48;78334;1298;3027136;-62
2023/05/10 05:15:56;;;;;;;1.80;1.00;;;;;;;11.55;46.09;99980.45;79791;1306;3013435;-63
2023/05/10 05:18:22;;;;;;;1.20;0.70;;;;;;;11.70;44.77;99983.44;79662;1298;3011351;-62
2023/05/10 05:20:51;;;;;;;2.80;1.00;;;;;;;11.76;44.23;99983.30;78404;1298;3029029;-65
2023/05/10 05:23:18;;;;;;;4.70;0.90;;;;;;;11.81;44.36;99983.04;79653;1297;3013023;-64
2023/05/10 05:25:45;;;;;;;5.20;1.20;;;;;;;11.94;44.73;99986.12;79391;1298;3011607;-64
2023/05/10 05:28:12;;;;;;;3.00;1.20;;;;;;;11.73;43.83;99981.69;78621;1293;3028212;-64
2023/05/10 05:30:39;;;;;;;2.20;1.40;;;;;;;11.70;44.28;99981.15;79692;1306;3012953;-64
2023/05/10 05:33:06;;;;;;;2.40;1.10;;;;;;;11.82;43.29;99984.02;79662;1293;3011899;-64
2023/05/10 05:35:34;;;;;;;1.80;1.10;;;;;;;11.84;43.05;99987.02;78688;1298;3028462;-64
2023/05/10 05:38:00;;;;;;;1.10;0.70;;;;;;;11.85;42.92;99985.05;79752;1294;3013413;-64
2023/05/10 05:40:27;;;;;;;1.40;1.10;;;;;;;11.70;42.98;99982.23;79733;1292;3011645;-64
2023/05/10 05:42:55;;;;;;;4.20;1.10;;;;;;;11.79;43.43;99981.52;78496;1292;3025877;-65
2023/05/10 05:45:21;;;;;;;2.40;0.90;;;;;;;11.93;43.17;99982.33;79703;1297;3020443;-63
2023/05/10 05:47:48;;;;;;;1.40;0.80;;;;;;;11.96;42.94;99976.20;80132;1298;3013488;-64
2023/05/10 05:50:17;;;;;;;1.50;0.90;;;;;;;12.05;42.14;99976.73;80811;1295;3051167;-67
2023/05/10 05:52:43;;;;;;;3.20;0.90;;;;;;;12.31;42.20;99974.65;81845;1295;3018842;-65
2023/05/10 05:55:10;;;;;;;3.40;1.00;;;;;;;12.48;41.92;99977.22;82089;1295;3011358;-64
2023/05/10 05:57:38;;;;;;;2.20;0.80;;;;;;;12.61;42.18;99980.59;80812;1297;3024878;-65
2023/05/10 06:00:05;;;;;;;2.10;0.80;;;;;;;12.75;42.22;99980.83;81161;1298;3013336;-63
2023/05/10 06:02:40;;;;;;;5.20;1.10;;;;;;;12.78;41.68;99981.70;78946;1298;3068751;-65
2023/05/10 06:05:08;;;;;;;3.80;1.20;;;;;;;12.85;41.65;99977.02;79603;1293;3020466;-66
2023/05/10 06:07:35;;;;;;;4.30;0.90;;;;;;;12.91;41.37;99976.27;79859;1292;3011684;-68
2023/05/10 06:10:03;;;;;;;3.10;1.30;;;;;;;12.92;41.54;99978.37;78469;1298;3052643;-63
2023/05/10 06:12:31;;;;;;;2.50;1.00;;;;;;;12.96;41.56;99974.63;79746;1298;3013153;-66
2023/05/10 06:14:57;;;;;;;2.40;0.80;;;;;;;13.00;39.91;99971.72;79701;1298;3012002;-65
2023/05/10 06:17:26;;;;;;;0.90;0.80;;;;;;;13.13;38.97;99968.08;78455;1295;3068676;-68
2023/05/10 06:19:52;;;;;;;1.40;0.90;;;;;;;13.24;38.78;99967.38;79766;1298;3013269;-68
2023/05/10 06:22:19;;;;;;;3.30;0.80;;;;;;;12.85;38.33;99971.27;79702;1293;3012878;-66
2023/05/10 06:24:47;;;;;;;3.40;0.80;;;;;;;12.95;38.42;99972.55;78357;1296;3053262;-63
2023/05/10 06:27:14;;;;;;;1.70;1.10;;;;;;;13.13;38.24;99962.63;79745;1297;3018941;-64
2023/05/10 06:29:40;;;;;;;3.30;1.00;;;;;;;13.20;37.62;99967.79;79691;1298;3013006;-65
2023/05/10 06:32:08;;;;;;;3.80;1.10;;;;;;;13.34;37.85;99967.30;78419;1296;3028099;-64
2023/05/10 06:34:35;;;;;;;2.20;0.80;;;;;;;13.38;37.49;99967.39;79773;1293;3013218;-63
2023/05/10 06:37:03;;;;;;;2.90;1.00;;;;;;;13.55;37.55;99966.70;79694;1292;3012871;-63
2023/05/10 06:39:31;;;;;;;2.00;0.90;;;;;;;13.34;37.73;99962.75;78499;1296;3052550;-64
2023/05/10 06:41:57;;;;;;;3.80;1.10;;;;;;;13.48;37.61;99962.71;79605;1298;3012989;-65
2023/05/10 06:44:24;;;;;;;1.70;0.60;;;;;;;13.56;37.70;99962.36;79717;1298;3012999;-62
2023/05/10 06:46:53;;;;;;;2.10;1.30;;;;;;;13.54;37.76;99963.36;78431;1295;3026595;-63
2023/05/10 06:49:20;;;;;;;3.30;1.30;;;;;;;13.57;37.92;99959.13;79769;1293;3013465;-65
2023/05/10 06:51:46;;;;;;;6.60;1.80;;;;;;;13.76;37.92;99958.45;79728;1295;3013159;-66
2023/05/10 06:54:14;;;;;;;4.00;1.50;;;;;;;13.81;37.84;99955.85;78420;1295;3055037;-65
2023/05/10 06:56:40;;;;;;;1.80;1.10;;;;;;;13.76;37.90;99960.05;79744;1293;3013047;-66
2023/05/10 06:59:07;;;;;;;4.00;1.20;;;;;;;13.66;39.01;99961.39;79813;1297;3011490;-66
2023/05/10 07:01:35;;;;;;;3.10;1.30;;;;;;;13.36;39.25;99959.60;78365;1297;3025538;-65
2023/05/10 07:04:02;;;;;;;1.70;1.00;;;;;;;13.30;39.37;99954.15;79708;1298;3013493;-64
2023/05/10 07:06:29;;;;;;;3.90;1.00;;;;;;;13.37;39.61;99954.80;79746;1292;3011848;-66
2023/05/10 07:08:57;;;;;;;1.40;0.80;;;;;;;13.36;39.95;99955.02;78485;1299;3024845;-64
2023/05/10 07:11:23;;;;;;;1.40;1.00;;;;;;;13.44;39.85;99947.17;79642;1298;3013572;-65
2023/05/10 07:13:51;;;;;;;4.80;1.00;;;;;;;13.55;39.31;99949.23;79548;1298;3011592;-67
2023/05/10 07:16:19;;;;;;;3.30;0.90;;;;;;;13.74;38.62;99953.67;78385;1298;3069402;-65
2023/05/10 07:18:45;;;;;;;2.30;1.00;;;;;;;13.73;37.90;99950.39;79612;1293;3013157;-65
2023/05/10 07:21:12;;;;;;;3.20;1.20;;;;;;;13.88;37.67;99950.74;79739;1293;3011854;-65
2023/05/10 07:23:39;;;;;;;4.00;1.00;;;;;;;14.11;37.37;99955.10;78627;1295;3027680;-69
2023/05/10 07:26:06;;;;;;;4.20;1.00;;;;;;;14.08;36.74;99948.02;79830;1298;3018156;-68
2023/05/10 07:28:33;;;;;;;1.90;1.00;;;;;;;13.98;36.53;99944.29;79616;1296;3011579;-67
2023/05/10 07:31:01;;;;;;;6.80;1.10;;;;;;;13.74;37.33;99943.63;78641;1298;3026695;-66
2023/05/10 07:33:28;;;;;;;4.80;1.30;;;;;;;13.72;37.35;99948.33;79960;1295;3013311;-68
2023/05/10 07:35:54;;;;;;;2.40;1.30;;;;;;;13.70;37.10;99949.84;79674;1293;3012904;-68
2023/05/10 07:38:23;;;;;;;2.50;1.20;;;;;;;13.78;37.20;99951.26;78354;1297;3029664;-64
2023/05/10 07:40:49;;;;;;;3.10;1.00;;;;;;;13.91;37.20;99953.76;79813;1298;3013032;-68
2023/05/10 07:43:16;;;;;;;2.00;1.00;;;;;;;13.97;36.82;99950.41;79556;1298;3011566;-66
2023/05/10 07:45:44;;;;;;;2.80;1.50;;;;;;;13.74;37.84;99952.92;78328;1298;3028345;-65
2023/05/10 07:48:11;;;;;;;7.10;1.70;;;;;;;13.41;39.15;99950.31;79555;1292;3013514;-65
2023/05/10 07:50:38;;;;;;;10.50;2.20;;;;;;;13.36;39.73;99956.09;79828;1293;3013747;-67
2023/05/10 07:53:05;;;;;;;3.90;2.00;;;;;;;12.88;40.42;99957.71;78458;1296;3026586;-67
2023/05/10 07:55:33;;;;;;;3.60;1.60;;;;;;;12.53;40.91;99959.64;79763;1298;3012755;-65
2023/05/10 07:58:00;;;;;;;2.40;1.50;;;;;;;12.50;42.37;99957.20;79697;1298;3012888;-63
2023/05/10 08:00:28;;;;;;;2.50;1.50;;;;;;;12.36;43.67;99957.67;78525;1293;3069044;-66
2023/05/10 08:02:55;;;;;;;8.60;1.40;;;;;;;12.37;43.19;99957.26;79806;1297;3018628;-65
2023/05/10 08:05:22;;;;;;;4.70;1.30;;;;;;;12.78;42.69;99946.02;79818;1298;3011597;-67
2023/05/10 08:07:50;;;;;;;2.20;1.30;;;;;;;13.15;41.86;99945.81;78977;1297;3028502;-64
2023/05/10 08:10:16;;;;;;;4.60;1.50;;;;;;;13.29;41.04;99940.71;80452;1298;3012963;-64
2023/05/10 08:12:43;;;;;;;2.40;1.30;;;;;;;12.94;40.54;99941.14;80395;1296;3011837;-67
2023/05/10 08:15:11;;;;;;;2.20;1.10;;;;;;;13.02;41.10;99938.52;78676;1295;3025432;-65
2023/05/10 08:17:39;;;;;;;4.00;1.10;;;;;;;12.91;40.94;99941.83;79505;1295;3020933;-64
2023/05/10 08:20:07;;;;;;;2.60;1.30;;;;;;;12.54;41.75;99949.05;79586;1295;3011884;-66
2023/05/10 08:22:35;;;;;;;2.00;1.20;;;;;;;12.54;44.19;99952.90;78422;1297;3052838;-65
2023/05/10 08:25:02;;;;;;;3.80;1.20;;;;;;;12.82;44.09;99955.09;79735;1297;3012540;-64
2023/05/10 08:27:29;;;;;;;2.80;1.10;;;;;;;12.91;44.55;99954.16;79873;1298;3011530;-65
2023/05/10 08:29:57;;;;;;;2.30;1.20;;;;;;;13.06;42.82;99949.20;80126;1295;3026508;-66
2023/05/10 08:32:23;;;;;;;2.00;1.10;;;;;;;13.10;42.60;99947.15;80354;1293;3013136;-66
2023/05/10 08:34:50;;;;;;;1.80;1.10;;;;;;;13.16;42.91;99947.87;79948;1298;3012853;-70
2023/05/10 08:37:17;;;;;;;2.20;1.10;;;;;;;13.17;42.84;99941.64;78410;1297;3026752;-68
2023/05/10 08:39:47;;;;;;;7.20;1.20;;;;;;;13.25;42.18;99939.36;79725;1298;3019002;-70
2023/05/10 08:42:19;;;;;;;3.10;1.10;;;;;;;13.44;41.81;99931.48;79214;1297;3012786;-67
2023/05/10 08:44:47;;;;;;;3.60;1.00;;;;;;;13.68;40.76;99935.02;79800;1298;3011754;-67
2023/05/10 08:47:16;;;;;;;1.90;1.00;;;;;;;13.59;40.02;99932.64;78473;1298;3028105;-67
2023/05/10 08:49:43;;;;;;;1.80;0.90;;;;;;;13.71;40.22;99931.12;79702;1293;3013871;-66
2023/05/10 08:52:11;;;;;;;12.50;1.20;;;;;;;13.74;40.06;99927.42;79874;1293;3011582;-67
2023/05/10 08:54:39;;;;;;;2.90;1.00;;;;;;;13.74;39.61;99928.48;78568;1297;3052636;-67
2023/05/10 08:57:05;;;;;;;2.30;1.20;;;;;;;13.60;38.70;99931.64;79799;1301;3013485;-69
2023/05/10 08:59:32;;;;;;;2.80;0.90;;;;;;;13.49;39.27;99929.41;79766;1297;3013033;-68
2023/05/10 09:02:00;;;;;;;1.80;1.10;;;;;;;13.58;39.64;99927.20;78551;1298;3069523;-70
2023/05/10 09:04:27;;;;;;;2.90;0.90;;;;;;;13.64;39.10;99927.87;79763;1293;3018292;-73
2023/05/10 09:06:54;;;;;;;3.20;0.90;;;;;;;13.73;38.64;99927.98;79867;1292;3012344;-72
2023/05/10 09:09:22;;;;;;;2.10;1.20;;;;;;;13.59;38.42;99928.07;78567;1297;3025990;-66
2023/05/10 09:11:48;;;;;;;1.90;0.90;;;;;;;13.43;38.95;99923.30;79656;1297;3013402;-65
2023/05/10 09:14:14;;;;;;;3.10;0.90;;;;;;;13.42;38.80;99921.59;79746;1296;3011938;-68
2023/05/10 09:16:42;;;;;;;4.50;1.30;;;;;;;13.34;39.00;99925.61;78521;1293;3028113;-68
2023/05/10 09:19:09;;;;;;;1.70;1.10;;;;;;;13.43;38.77;99924.14;79848;1293;3018555;-69
2023/05/10 09:21:38;;;;;;;1.90;0.90;;;;;;;13.51;38.86;99918.88;79816;1297;3012775;-70
2023/05/10 09:24:06;;;;;;;3.30;1.10;;;;;;;13.31;37.93;99916.11;78628;1298;3051758;-69
2023/05/10 09:26:35;;;;;;;6.10;1.80;;;;;;;13.30;37.85;99907.21;79995;1296;3013402;-71
2023/05/10 09:29:04;;;;;;;2.00;1.00;;;;;;;13.37;37.44;99909.91;79377;1298;3011639;-64
2023/05/10 09:31:47;;;;;;;3.40;1.00;;;;;;;13.48;36.34;99907.27;79780;1297;3013129;-69
2023/05/10 09:34:17;;;;;;;1.50;0.70;;;;;;;13.57;35.80;99905.11;78369;1292;3053025;-64
2023/05/10 09:36:54;;;;;;;1.20;0.80;;;;;;;13.82;35.79;99905.92;79929;1295;3011565;-69
2023/05/10 09:39:37;;;;;;;1.80;0.90;;;;;;;14.12;35.25;99898.41;78583;1292;3049407;-68
2023/05/10 09:42:06;;;;;;;;;;;;;;;14.22;34.95;99900.00;78697;1297;3053927;-64
2023/05/10 09:44:32;;;;;;;4.30;1.10;;;;;;;14.05;35.51;99898.95;79787;1298;3013257;-66
2023/05/10 09:47:00;;;;;;;9.30;1.90;;;;;;;13.97;35.55;99895.79;79747;1293;3011709;-65
2023/05/10 09:49:28;;;;;;;2.70;0.80;;;;;;;14.12;35.71;99893.48;78682;1296;3069034;-66
2023/05/10 09:52:05;;;;;;;3.60;0.90;;;;;;;14.40;35.55;99891.42;79810;1292;3020032;-67
2023/05/10 09:54:33;;;;;;;5.60;1.00;;;;;;;14.06;35.55;99893.77;78590;1296;3048991;-67
2023/05/10 09:57:00;;;;;;;1.00;0.80;;;;;;;14.22;35.14;99892.32;79878;1298;3013196;-67
2023/05/10 09:59:27;;;;;;;2.50;1.00;;;;;;;14.35;34.24;99884.75;79756;1295;3012877;-66
2023/05/10 10:01:56;;;;;;;1.80;1.00;;;;;;;14.37;33.81;99884.27;78520;1296;3025573;-67
2023/05/10 10:04:22;;;;;;;3.10;1.20;;;;;;;14.43;34.39;99884.54;79728;1297;3012883;-64
2023/05/10 10:06:59;;;;;;;2.40;1.00;;;;;;;14.41;34.11;99884.63;79730;1292;3011592;-66
2023/05/10 10:09:27;;;;;;;0.70;0.60;;;;;;;14.31;33.80;99885.33;78578;1295;3048644;-67
2023/05/10 10:11:54;;;;;;;2.10;0.70;;;;;;;14.43;32.99;99884.38;79833;1296;3013496;-65
2023/05/10 10:14:22;;;;;;;2.80;1.20;;;;;;;14.69;33.07;99877.93;79704;1295;3011696;-64
2023/05/10 10:16:51;;;;;;;8.10;1.30;;;;;;;14.90;33.15;99877.83;78563;1297;3051684;-65
2023/05/10 10:19:21;;;;;;;2.10;1.10;;;;;;;15.16;33.02;99882.20;79606;1297;3013938;-65
2023/05/10 10:21:49;;;;;;;1.90;1.50;;;;;;;15.55;32.59;99877.90;78452;1296;3056966;-66
2023/05/10 10:24:16;;;;;;;2.60;1.20;;;;;;;15.65;32.52;99873.63;79858;1293;3013641;-65
2023/05/10 10:26:42;;;;;;;3.30;0.90;;;;;;;15.53;33.04;99874.38;79768;1292;3011662;-67
2023/05/10 10:29:40;;;;;;;2.60;0.80;;;;;;;15.40;33.73;99882.23;78440;1298;3051911;-63
2023/05/10 10:32:10;;;;;;;1.50;1.10;;;;;;;15.29;33.84;99888.11;78333;1299;3053444;-63
2023/05/10 10:34:36;;;;;;;1.40;1.20;;;;;;;15.11;35.04;99892.96;79771;1297;3014394;-65
2023/05/10 10:37:06;;;;;;;2.70;1.20;;;;;;;15.18;35.40;99890.01;79414;1298;3013359;-65
2023/05/10 10:39:36;;;;;;;2.60;1.80;;;;;;;14.89;37.13;99890.45;78457;1296;3049331;-63
2023/05/10 10:42:03;;;;;;;4.40;1.80;;;;;;;14.55;38.83;99890.73;79846;1293;3013722;-65
2023/05/10 10:44:36;;;;;;;2.70;1.60;;;;;;;14.50;39.12;99887.71;79321;1296;3011889;-67
2023/05/10 10:47:12;;;;;;;5.20;1.60;;;;;;;14.66;39.50;99888.89;79920;1292;3011570;-66
2023/05/10 10:49:41;;;;;;;7.50;1.70;;;;;;;14.79;38.49;99877.96;78561;1296;3052865;-67
2023/05/10 10:52:35;;;;;;;4.30;1.60;;;;;;;14.82;37.80;99874.56;79882;1292;3013127;-67
2023/05/10 10:55:13;;;;;;;4.70;1.40;;;;;;;15.02;36.54;99869.79;78410;1296;3056038;-68
2023/05/10 10:57:44;;;;;;;3.40;1.50;;;;;;;15.11;36.27;99859.46;78639;1292;3049021;-68
2023/05/10 11:00:30;;;;;;;2.80;1.20;;;;;;;15.20;35.80;99862.33;79770;1295;3013727;-64
2023/05/10 11:03:08;;;;;;;3.20;1.60;;;;;;;15.26;34.22;99860.63;78725;1298;3049775;-66
2023/05/10 11:05:40;;;;;;;5.50;1.90;;;;;;;15.37;33.27;99853.08;78593;1297;3052784;-67
2023/05/10 11:08:10;;;;;;;2.10;1.30;;;;;;;15.54;32.81;99857.29;79844;1298;3013569;-68
2023/05/10 11:10:38;;;;;;;1.90;1.30;;;;;;;15.59;32.72;99856.62;78477;1298;3069367;-66
2023/05/10 11:13:10;;;;;;;3.80;1.30;;;;;;;15.51;32.51;99856.13;79737;1297;3013131;-66
2023/05/10 11:15:38;;;;;;;3.30;1.50;;;;;;;15.35;31.50;99853.06;78602;1296;3049115;-67
2023/05/10 11:18:18;;;;;;;1.90;0.70;;;;;;;15.40;31.75;99850.55;79920;1297;3012802;-71
2023/05/10 11:21:09;;;;;;;3.90;1.00;;;;;;;15.63;31.33;99854.71;78602;1292;3052205;-68
2023/05/10 11:23:39;;;;;;;5.00;1.10;;;;;;;15.50;31.04;99854.45;78359;1296;3052733;-66
2023/05/10 11:26:09;;;;;;;1.30;0.80;;;;;;;15.65;30.88;99853.83;79590;1298;3011573;-67
2023/05/10 11:28:47;;;;;;;3.20;1.10;;;;;;;15.87;30.40;99851.13;78332;1294;3050259;-69